Time;durP1;ratioP1;P1;durP2;ratioP2;P2;SDS_P1;SDS_P2;PMS_P1;PMS_P2;Temp;Humidity;BMP_temperature;BMP_pressure;BME280_temperature;BME280_humidity;BME280_pressure;Samples;Min_cycle;Max_cycle;Signal;HPM_P1;HPM_P2
2024/01/24 00:02:24;;;;;;;1.50;0.20;;;9.30;1.00;;;;;;5089261;28;20815;-62
2024/01/24 00:04:51;;;;;;;1.52;0.20;;;9.40;1.00;;;;;;5090906;28;20752;-63
2024/01/24 00:07:18;;;;;;;0.70;0.20;;;9.40;1.00;;;;;;5094018;28;20449;-63
2024/01/24 00:09:47;;;;;;;1.58;0.30;;;9.40;1.00;;;;;;5095753;28;20421;-63
2024/01/24 00:12:14;;;;;;;0.80;0.20;;;9.50;1.00;;;;;;5094983;28;20417;-62
2024/01/24 00:14:41;;;;;;;0.50;0.20;;;9.50;1.00;;;;;;5095052;28;20414;-62
2024/01/24 00:17:08;;;;;;;1.80;0.20;;;9.60;1.00;;;;;;5095519;28;20837;-62
2024/01/24 00:19:36;;;;;;;0.50;0.20;;;9.70;1.00;;;;;;5089706;28;20809;-62
2024/01/24 00:22:04;;;;;;;1.30;0.20;;;9.60;1.00;;;;;;5074413;28;20439;-63
2024/01/24 00:24:31;;;;;;;0.50;0.20;;;9.70;1.00;;;;;;5075237;28;20494;-63
2024/01/24 00:26:59;;;;;;;0.65;0.20;;;9.70;1.00;;;;;;5074418;28;20426;-63
2024/01/24 00:29:27;;;;;;;2.25;0.20;;;9.70;1.00;;;;;;5093568;28;20421;-63
2024/01/24 00:31:56;;;;;;;0.93;0.20;;;9.70;1.00;;;;;;5095012;28;20756;-62
2024/01/24 00:34:23;;;;;;;1.00;0.20;;;9.80;1.00;;;;;;5094806;28;20421;-63
2024/01/24 00:36:50;;;;;;;0.57;0.20;;;9.80;1.00;;;;;;5094688;28;20755;-61
2024/01/24 00:39:18;;;;;;;1.10;0.20;;;9.80;1.00;;;;;;5095593;28;20454;-61
2024/01/24 00:41:46;;;;;;;1.00;0.20;;;9.80;1.00;;;;;;5094579;28;20923;-63
2024/01/24 00:44:15;;;;;;;2.65;0.20;;;9.80;1.00;;;;;;5094425;28;20414;-63
2024/01/24 00:46:42;;;;;;;0.57;0.20;;;9.80;1.00;;;;;;5092573;28;20429;-63
2024/01/24 00:49:10;;;;;;;1.00;0.20;;;9.90;1.00;;;;;;5077794;28;20766;-62
2024/01/24 00:51:38;;;;;;;1.10;0.20;;;9.90;1.00;;;;;;5074404;28;20450;-62
2024/01/24 00:54:05;;;;;;;0.80;0.20;;;9.90;1.00;;;;;;5074211;28;20419;-63
2024/01/24 00:56:32;;;;;;;0.60;0.20;;;10.00;99.90;;;;;;5085305;28;20422;-59
2024/01/24 00:58:59;;;;;;;0.40;0.10;;;10.00;99.90;;;;;;5083815;28;20460;-61
2024/01/24 01:01:27;;;;;;;0.50;0.20;;;10.00;99.90;;;;;;5079548;28;20440;-61
2024/01/24 01:03:54;;;;;;;1.90;0.20;;;10.00;99.90;;;;;;5089439;28;20529;-61
2024/01/24 01:06:22;;;;;;;0.65;0.20;;;10.00;99.90;;;;;;5094801;28;20944;-61
2024/01/24 01:08:49;;;;;;;0.60;0.20;;;10.10;99.90;;;;;;5094084;28;20465;-62
2024/01/24 01:11:18;;;;;;;0.55;0.20;;;10.00;99.90;;;;;;5095088;28;20573;-62
2024/01/24 01:13:45;;;;;;;0.40;0.20;;;10.10;99.90;;;;;;5094027;28;20425;-61
2024/01/24 01:16:12;;;;;;;0.50;0.20;;;10.10;99.90;;;;;;5097546;28;20417;-62
2024/01/24 01:18:40;;;;;;;0.98;0.20;;;10.10;99.90;;;;;;5090595;28;20819;-61
2024/01/24 01:21:07;;;;;;;1.00;0.20;;;10.20;99.90;;;;;;5075976;28;20431;-61
2024/01/24 01:23:34;;;;;;;0.40;0.20;;;10.20;99.90;;;;;;5088455;28;20440;-61
2024/01/24 01:26:01;;;;;;;0.90;0.20;;;10.20;99.90;;;;;;5095894;28;20432;-62
2024/01/24 01:28:29;;;;;;;1.50;0.20;;;10.20;99.90;;;;;;5095941;28;20422;-61
2024/01/24 01:30:56;;;;;;;2.08;0.20;;;10.10;99.90;;;;;;5095639;28;20449;-61
2024/01/24 01:33:23;;;;;;;1.20;0.20;;;10.20;99.90;;;;;;5096934;28;20930;-62
2024/01/24 01:35:52;;;;;;;1.70;0.20;;;10.20;99.90;;;;;;5098010;28;20699;-62
2024/01/24 01:38:19;;;;;;;3.10;0.20;;;10.20;99.90;;;;;;5096879;28;20418;-60
2024/01/24 01:40:46;;;;;;;0.60;0.20;;;10.20;99.90;;;;;;5094287;28;20832;-60
2024/01/24 01:43:14;;;;;;;0.68;0.20;;;10.20;99.90;;;;;;5093606;28;20429;-59
2024/01/24 01:45:41;;;;;;;1.00;0.20;;;10.20;99.90;;;;;;5096281;28;20476;-62
2024/01/24 01:48:10;;;;;;;0.60;0.20;;;10.10;99.90;;;;;;5097657;28;20433;-60
2024/01/24 01:50:37;;;;;;;0.50;0.20;;;10.10;99.90;;;;;;5098157;28;20482;-60
2024/01/24 01:53:08;;;;;;;0.30;0.10;;;10.10;99.90;;;;;;5097652;28;20428;-60
2024/01/24 01:55:36;;;;;;;1.30;0.10;;;10.10;99.90;;;;;;5096759;28;20422;-59
2024/01/24 01:58:04;;;;;;;1.25;0.20;;;10.10;99.90;;;;;;5096581;28;20425;-60
2024/01/24 02:00:33;;;;;;;0.50;0.20;;;10.10;99.90;;;;;;5084261;28;20494;-61
2024/01/24 02:03:01;;;;;;;1.10;0.20;;;10.00;1.00;;;;;;5094851;28;20477;-60
2024/01/24 02:05:28;;;;;;;1.33;0.20;;;9.90;1.00;;;;;;5094156;28;20429;-60
2024/01/24 02:07:55;;;;;;;0.50;0.20;;;9.90;1.00;;;;;;5097257;28;20926;-60
2024/01/24 02:10:23;;;;;;;1.20;0.20;;;9.90;1.00;;;;;;5095849;28;20449;-60
2024/01/24 02:12:51;;;;;;;0.43;0.10;;;10.00;1.00;;;;;;5094945;28;20433;-61
2024/01/24 02:15:18;;;;;;;1.60;0.20;;;10.00;1.00;;;;;;5096225;28;20521;-60
2024/01/24 02:17:45;;;;;;;0.60;0.20;;;10.00;1.00;;;;;;5096705;28;20414;-60
2024/01/24 02:20:13;;;;;;;0.70;0.20;;;10.00;1.00;;;;;;5088964;28;20460;-60
2024/01/24 02:22:40;;;;;;;1.30;0.20;;;9.90;1.00;;;;;;5094770;28;20433;-61
2024/01/24 02:25:09;;;;;;;0.70;0.20;;;9.90;1.00;;;;;;5088069;28;20897;-61
2024/01/24 02:27:36;;;;;;;1.25;0.20;;;9.90;1.00;;;;;;5096884;28;20839;-61
2024/01/24 02:30:05;;;;;;;0.40;0.20;;;9.90;1.00;;;;;;5096468;28;20425;-60
2024/01/24 02:32:32;;;;;;;1.10;0.20;;;10.00;1.00;;;;;;5097068;28;20452;-61
2024/01/24 02:34:59;;;;;;;1.10;0.20;;;10.00;1.00;;;;;;5097781;28;20483;-61
2024/01/24 02:37:25;;;;;;;0.70;0.20;;;10.00;1.00;;;;;;5091046;28;20499;-61
2024/01/24 02:39:52;;;;;;;0.90;0.20;;;10.10;1.00;;;;;;5077567;28;20428;-61
2024/01/24 02:42:21;;;;;;;0.50;0.10;;;10.10;1.00;;;;;;5076358;28;20436;-60
2024/01/24 02:44:48;;;;;;;0.45;0.20;;;10.10;1.00;;;;;;5076015;28;20477;-61
2024/01/24 02:47:16;;;;;;;1.10;0.20;;;10.10;1.00;;;;;;5085742;28;20445;-60
2024/01/24 02:49:43;;;;;;;1.90;0.30;;;10.10;1.00;;;;;;5076977;28;20436;-60
2024/01/24 02:52:10;;;;;;;1.30;0.20;;;10.10;99.90;;;;;;5076194;28;20439;-61
2024/01/24 02:54:41;;;;;;;0.52;0.20;;;10.10;99.90;;;;;;5076915;28;20825;-60
2024/01/24 02:57:08;;;;;;;0.60;0.20;;;10.10;99.90;;;;;;5076436;28;20489;-61
2024/01/24 02:59:36;;;;;;;0.80;0.20;;;10.20;99.90;;;;;;5092224;28;20442;-61
2024/01/24 03:02:03;;;;;;;0.50;0.20;;;10.20;99.90;;;;;;5094549;28;20441;-61
2024/01/24 03:04:30;;;;;;;1.50;0.20;;;10.20;99.90;;;;;;5076929;28;20435;-61
2024/01/24 03:06:57;;;;;;;0.50;0.20;;;10.20;99.90;;;;;;5076880;28;20427;-61
2024/01/24 03:09:24;;;;;;;0.52;0.10;;;10.10;1.00;;;;;;5075832;28;20428;-61
2024/01/24 03:11:51;;;;;;;0.45;0.10;;;10.10;1.00;;;;;;5090007;28;20479;-61
2024/01/24 03:14:18;;;;;;;0.80;0.10;;;10.20;1.00;;;;;;5095736;28;20441;-61
2024/01/24 03:16:47;;;;;;;0.95;0.20;;;10.20;1.00;;;;;;5089847;28;20442;-61
2024/01/24 03:19:14;;;;;;;1.90;0.10;;;10.20;99.90;;;;;;5090695;28;20451;-62
2024/01/24 03:21:42;;;;;;;1.10;0.20;;;10.20;99.90;;;;;;5094837;28;20445;-61
2024/01/24 03:24:09;;;;;;;1.33;0.30;;;10.30;21.60;;;;;;5096253;28;20426;-61
2024/01/24 03:26:36;;;;;;;0.73;0.20;;;10.30;57.90;;;;;;5095840;28;20465;-61
2024/01/24 03:29:03;;;;;;;0.90;0.20;;;10.30;99.90;;;;;;5095798;28;20437;-61
2024/01/24 03:31:30;;;;;;;1.80;0.20;;;10.40;74.30;;;;;;5093903;28;20705;-61
2024/01/24 03:33:59;;;;;;;0.80;0.20;;;10.50;99.90;;;;;;5095337;28;20494;-61
2024/01/24 03:36:26;;;;;;;0.40;0.10;;;10.50;40.70;;;;;;5095705;28;20486;-61
2024/01/24 03:38:53;;;;;;;1.20;0.20;;;10.40;99.90;;;;;;5095836;28;20819;-61
2024/01/24 03:41:20;;;;;;;0.70;0.20;;;10.40;99.90;;;;;;5095968;28;20449;-61
2024/01/24 03:43:48;;;;;;;0.70;0.20;;;10.40;99.90;;;;;;5093978;28;20491;-61
2024/01/24 03:46:18;;;;;;;0.60;0.20;;;10.40;1.00;;;;;;5093640;28;20767;-60
2024/01/24 03:48:45;;;;;;;0.80;0.20;;;10.50;1.00;;;;;;5075381;28;20444;-61
2024/01/24 03:51:14;;;;;;;0.80;0.20;;;10.50;1.00;;;;;;5084304;28;20506;-61
2024/01/24 03:53:41;;;;;;;0.80;0.20;;;10.50;1.00;;;;;;5095928;28;20787;-61
2024/01/24 03:56:08;;;;;;;0.55;0.20;;;10.50;1.00;;;;;;5095816;28;20528;-61
2024/01/24 03:58:36;;;;;;;0.80;0.30;;;10.50;1.00;;;;;;5095299;28;20422;-61
2024/01/24 04:01:04;;;;;;;0.60;0.20;;;10.50;1.00;;;;;;5095078;28;20453;-61
2024/01/24 04:03:31;;;;;;;1.48;0.20;;;10.50;99.90;;;;;;5095901;28;20487;-59
2024/01/24 04:05:58;;;;;;;0.50;0.20;;;10.50;99.90;;;;;;5095787;28;20482;-59
2024/01/24 04:08:26;;;;;;;0.95;0.20;;;10.50;1.00;;;;;;5093316;28;20438;-58
2024/01/24 04:10:53;;;;;;;0.50;0.20;;;10.50;1.00;;;;;;5074866;28;20423;-59
2024/01/24 04:13:20;;;;;;;1.00;0.20;;;10.50;1.00;;;;;;5086761;28;20442;-61
2024/01/24 04:15:47;;;;;;;2.72;0.20;;;10.50;1.00;;;;;;5095237;28;20429;-59
2024/01/24 04:18:14;;;;;;;0.60;0.20;;;10.50;1.00;;;;;;5094827;28;20425;-60
2024/01/24 04:20:41;;;;;;;0.43;0.20;;;10.60;1.00;;;;;;5095526;28;20422;-59
2024/01/24 04:23:08;;;;;;;0.70;0.20;;;10.70;99.90;;;;;;5075368;28;20505;-59
2024/01/24 04:25:37;;;;;;;0.80;0.20;;;10.60;1.00;;;;;;5074460;28;20500;-59
2024/01/24 04:28:04;;;;;;;1.10;0.20;;;10.60;1.00;;;;;;5074779;28;20427;-58
2024/01/24 04:30:31;;;;;;;0.90;0.20;;;10.50;99.90;;;;;;5095101;28;20425;-59
2024/01/24 04:32:58;;;;;;;1.05;0.20;;;10.60;99.90;;;;;;5094793;28;20414;-58
2024/01/24 04:35:25;;;;;;;0.50;0.20;;;10.60;99.90;;;;;;5093865;28;20705;-59
2024/01/24 04:37:52;;;;;;;0.93;0.22;;;10.60;99.90;;;;;;5092097;28;20495;-59
2024/01/24 04:40:19;;;;;;;1.23;0.20;;;10.60;1.00;;;;;;5094694;28;20444;-59
2024/01/24 04:42:47;;;;;;;0.43;0.20;;;10.60;1.00;;;;;;5092901;28;20438;-58
2024/01/24 04:45:15;;;;;;;1.98;0.30;;;10.60;1.00;;;;;;5095221;28;20418;-57
2024/01/24 04:47:45;;;;;;;0.90;0.20;;;10.60;1.00;;;;;;5094689;28;20424;-59
2024/01/24 04:50:12;;;;;;;1.40;0.20;;;10.60;8.30;;;;;;5093894;28;20418;-58
2024/01/24 04:52:39;;;;;;;0.70;0.20;;;10.60;87.30;;;;;;5094146;28;20959;-59
2024/01/24 04:55:11;;;;;;;0.90;0.20;;;10.60;99.90;;;;;;5094208;28;20715;-59
2024/01/24 04:57:39;;;;;;;0.70;0.20;;;10.60;99.90;;;;;;5094185;28;20886;-58
2024/01/24 05:00:09;;;;;;;1.15;0.20;;;10.60;99.90;;;;;;5094734;28;20430;-59
2024/01/24 05:02:37;;;;;;;0.90;0.20;;;10.60;99.90;;;;;;5093881;28;20434;-60
2024/01/24 05:05:06;;;;;;;0.70;0.28;;;10.70;99.90;;;;;;5094155;28;20524;-63
2024/01/24 05:07:34;;;;;;;1.60;0.30;;;10.70;99.90;;;;;;5094441;28;20457;-63
2024/01/24 05:10:01;;;;;;;0.85;0.20;;;10.70;1.00;;;;;;5089964;28;20525;-62
2024/01/24 05:12:28;;;;;;;0.70;0.20;;;10.80;1.00;;;;;;5093596;28;20417;-62
2024/01/24 05:14:55;;;;;;;0.50;0.20;;;10.90;99.90;;;;;;5094556;28;20534;-62
2024/01/24 05:17:24;;;;;;;2.20;0.20;;;10.90;1.00;;;;;;5093618;28;20417;-62
2024/01/24 05:19:51;;;;;;;0.60;0.20;;;11.10;99.90;;;;;;5093030;28;20814;-62
2024/01/24 05:22:18;;;;;;;0.40;0.20;;;11.10;99.90;;;;;;5093270;28;20421;-62
2024/01/24 05:24:45;;;;;;;1.00;0.20;;;11.10;99.90;;;;;;5091975;28;20438;-60
2024/01/24 05:27:12;;;;;;;1.10;0.20;;;11.10;99.90;;;;;;5092868;28;20720;-60
2024/01/24 05:29:41;;;;;;;1.07;0.20;;;11.20;99.90;;;;;;5092991;28;20664;-60
2024/01/24 05:32:08;;;;;;;0.85;0.20;;;11.20;99.90;;;;;;5093030;28;20429;-59
2024/01/24 05:34:36;;;;;;;0.50;0.20;;;11.30;99.90;;;;;;5093396;28;20430;-60
2024/01/24 05:37:03;;;;;;;1.30;0.30;;;11.20;99.90;;;;;;5092803;28;20422;-60
2024/01/24 05:39:31;;;;;;;0.50;0.20;;;11.30;99.90;;;;;;5093433;28;20440;-60
2024/01/24 05:41:57;;;;;;;0.40;0.20;;;11.40;99.90;;;;;;5093434;28;20520;-60
2024/01/24 05:44:24;;;;;;;0.90;0.20;;;11.40;99.90;;;;;;5092161;28;20576;-60
2024/01/24 05:46:51;;;;;;;1.30;0.20;;;11.50;99.90;;;;;;5084187;28;20445;-57
2024/01/24 05:49:19;;;;;;;0.93;0.20;;;11.50;99.90;;;;;;5090592;28;20498;-60
2024/01/24 05:51:47;;;;;;;0.40;0.20;;;11.50;99.90;;;;;;5091636;28;20426;-60
2024/01/24 05:54:14;;;;;;;0.50;0.20;;;11.60;99.90;;;;;;5092425;28;20432;-60
2024/01/24 05:56:41;;;;;;;0.45;0.20;;;11.60;99.90;;;;;;5092432;28;20975;-60
2024/01/24 05:59:09;;;;;;;0.50;0.20;;;11.60;99.90;;;;;;5092822;28;20430;-59
2024/01/24 06:01:36;;;;;;;0.70;0.20;;;11.60;99.90;;;;;;5097191;28;20472;-68
2024/01/24 06:04:03;;;;;;;0.50;0.20;;;11.70;99.90;;;;;;5097371;28;20430;-67
2024/01/24 06:06:30;;;;;;;1.10;0.20;;;11.70;99.90;;;;;;5093268;28;20447;-68
2024/01/24 06:08:59;;;;;;;0.40;0.20;;;11.70;99.90;;;;;;5077463;28;20772;-67
2024/01/24 06:11:26;;;;;;;0.60;0.30;;;11.70;1.00;;;;;;5080646;28;20435;-68
2024/01/24 06:13:53;;;;;;;0.40;0.20;;;11.70;1.00;;;;;;5075491;28;20419;-68
2024/01/24 06:16:20;;;;;;;0.88;0.20;;;11.60;1.00;;;;;;5076331;28;20435;-68
2024/01/24 06:18:47;;;;;;;1.00;0.20;;;11.60;1.00;;;;;;5089396;28;20441;-68
2024/01/24 06:21:14;;;;;;;0.50;0.20;;;11.60;1.00;;;;;;5096413;28;20429;-68
2024/01/24 06:23:41;;;;;;;0.40;0.20;;;11.60;1.00;;;;;;5079061;28;20831;-67
2024/01/24 06:26:10;;;;;;;0.50;0.20;;;11.60;1.00;;;;;;5087502;28;20437;-68
2024/01/24 06:28:37;;;;;;;1.00;0.20;;;11.60;1.00;;;;;;5096004;28;20428;-68
2024/01/24 06:31:04;;;;;;;0.32;0.17;;;11.70;1.00;;;;;;5094005;28;20452;-67
2024/01/24 06:33:31;;;;;;;0.95;0.20;;;11.70;1.00;;;;;;5094198;28;20982;-67
2024/01/24 06:35:58;;;;;;;0.30;0.10;;;11.80;1.00;;;;;;5094321;28;20991;-61
2024/01/24 06:38:25;;;;;;;2.10;0.20;;;11.80;1.00;;;;;;5094332;28;20495;-62
2024/01/24 06:40:52;;;;;;;0.70;0.20;;;11.80;1.00;;;;;;5093380;28;20441;-62
2024/01/24 06:43:21;;;;;;;0.40;0.20;;;11.80;1.00;;;;;;5089304;28;20512;-62
2024/01/24 06:45:48;;;;;;;0.45;0.20;;;11.90;1.00;;;;;;5074928;28;20488;-62
2024/01/24 06:48:15;;;;;;;0.50;0.20;;;11.90;1.00;;;;;;5083888;28;20793;-62
2024/01/24 06:50:42;;;;;;;0.50;0.20;;;11.80;1.00;;;;;;5096871;28;20692;-62
2024/01/24 06:53:13;;;;;;;0.70;0.15;;;11.80;1.00;;;;;;5096253;28;20731;-62
2024/01/24 06:55:41;;;;;;;0.50;0.20;;;11.80;1.00;;;;;;5076532;28;20443;-63
2024/01/24 06:58:08;;;;;;;0.53;0.20;;;11.80;1.00;;;;;;5077674;28;20446;-62
2024/01/24 07:00:37;;;;;;;1.20;0.20;;;11.80;1.00;;;;;;5095803;28;20454;-61
2024/01/24 07:03:04;;;;;;;1.00;0.20;;;11.70;1.00;;;;;;5095227;28;20455;-62
2024/01/24 07:05:31;;;;;;;1.60;0.30;;;11.80;1.00;;;;;;5088869;28;20428;-63
2024/01/24 07:07:58;;;;;;;0.80;0.30;;;11.80;1.00;;;;;;5082878;28;20462;-63
2024/01/24 07:10:25;;;;;;;0.40;0.20;;;11.80;1.00;;;;;;5087996;28;20455;-63
2024/01/24 07:12:52;;;;;;;0.50;0.20;;;11.80;1.00;;;;;;5075713;28;20449;-64
2024/01/24 07:15:20;;;;;;;1.50;0.30;;;11.80;1.00;;;;;;5087938;28;20671;-63
2024/01/24 07:17:49;;;;;;;0.40;0.20;;;11.80;1.00;;;;;;5073913;28;20419;-63
2024/01/24 07:20:17;;;;;;;0.70;0.20;;;11.80;1.00;;;;;;5090922;28;20877;-63
2024/01/24 07:22:44;;;;;;;0.60;0.20;;;11.80;1.00;;;;;;5092549;28;20884;-63
2024/01/24 07:25:11;;;;;;;0.50;0.20;;;11.80;1.00;;;;;;5088257;28;20431;-63
2024/01/24 07:27:44;;;;;;;0.70;0.20;;;11.80;1.00;;;;;;5083020;28;21767;-63
2024/01/24 07:30:12;;;;;;;0.50;0.10;;;11.80;1.00;;;;;;5079008;28;20435;-64
2024/01/24 07:32:40;;;;;;;1.50;0.20;;;11.90;1.00;;;;;;5078683;28;20882;-64
2024/01/24 07:35:10;;;;;;;0.40;0.20;;;11.90;1.00;;;;;;5081663;28;20445;-64
2024/01/24 07:37:37;;;;;;;0.30;0.10;;;11.90;1.00;;;;;;5074207;28;20431;-63
2024/01/24 07:40:04;;;;;;;1.27;0.20;;;11.90;1.00;;;;;;5084506;28;20441;-63
2024/01/24 07:42:32;;;;;;;0.70;0.20;;;11.90;1.00;;;;;;5089004;28;20677;-64
2024/01/24 07:44:59;;;;;;;1.60;0.20;;;12.00;1.00;;;;;;5092683;28;20658;-63
2024/01/24 07:47:26;;;;;;;1.10;0.20;;;12.00;1.00;;;;;;5077255;28;20438;-64
2024/01/24 07:49:53;;;;;;;0.57;0.20;;;12.00;1.00;;;;;;5074849;28;20445;-63
2024/01/24 07:52:21;;;;;;;0.50;0.30;;;12.00;1.00;;;;;;5084256;28;20891;-64
2024/01/24 07:54:48;;;;;;;0.63;0.20;;;12.10;1.00;;;;;;5087705;28;20433;-64
2024/01/24 07:57:15;;;;;;;0.40;0.20;;;12.10;1.00;;;;;;5079817;28;20434;-64
2024/01/24 07:59:42;;;;;;;1.00;0.20;;;12.20;1.00;;;;;;5082164;28;20514;-63
2024/01/24 08:02:09;;;;;;;0.32;0.10;;;12.20;1.00;;;;;;5085098;28;20433;-64
2024/01/24 08:04:36;;;;;;;0.50;0.20;;;12.20;1.00;;;;;;5085408;28;20441;-64
2024/01/24 08:07:05;;;;;;;0.60;0.20;;;12.30;1.00;;;;;;5076330;28;20443;-64
2024/01/24 08:09:34;;;;;;;0.30;0.10;;;12.30;1.00;;;;;;5079887;28;20465;-64
2024/01/24 08:12:01;;;;;;;0.40;0.17;;;12.40;1.00;;;;;;5074090;28;20435;-64
2024/01/24 08:14:28;;;;;;;0.30;0.10;;;12.30;1.00;;;;;;5080161;28;20863;-64
2024/01/24 08:17:02;;;;;;;0.50;0.20;;;12.40;1.00;;;;;;5088708;28;20437;-64
2024/01/24 08:19:29;;;;;;;0.40;0.20;;;12.40;1.00;;;;;;5092540;28;20913;-64
2024/01/24 08:21:58;;;;;;;0.40;0.10;;;12.40;1.00;;;;;;5079533;28;20435;-64
2024/01/24 08:24:25;;;;;;;0.50;0.10;;;12.40;1.00;;;;;;5080854;28;20452;-64
2024/01/24 08:26:53;;;;;;;0.30;0.10;;;12.50;1.00;;;;;;5091371;28;20446;-64
2024/01/24 08:29:21;;;;;;;0.80;0.10;;;12.50;1.00;;;;;;5086794;28;20847;-64
2024/01/24 08:31:48;;;;;;;0.40;0.10;;;12.50;1.00;;;;;;5081115;28;20525;-63
2024/01/24 08:34:15;;;;;;;0.50;0.20;;;12.60;1.00;;;;;;5084358;28;20468;-64
2024/01/24 08:36:42;;;;;;;0.60;0.10;;;12.60;1.00;;;;;;5085561;28;20508;-65
2024/01/24 08:39:10;;;;;;;0.50;0.10;;;12.60;1.00;;;;;;5088671;28;20445;-64
2024/01/24 08:41:37;;;;;;;0.30;0.10;;;12.60;1.00;;;;;;5073394;28;20514;-64
2024/01/24 08:44:05;;;;;;;0.30;0.10;;;12.70;1.00;;;;;;5082506;28;21067;-64
2024/01/24 08:46:33;;;;;;;0.50;0.10;;;12.70;1.00;;;;;;5087213;28;20449;-63
2024/01/24 08:49:00;;;;;;;0.50;0.20;;;12.70;1.00;;;;;;5074416;28;20436;-63
2024/01/24 08:51:31;;;;;;;0.50;0.30;;;12.70;1.00;;;;;;5080021;28;20436;-64
2024/01/24 08:53:59;;;;;;;0.50;0.20;;;12.70;1.00;;;;;;5074207;28;20426;-63
2024/01/24 08:56:26;;;;;;;0.70;0.10;;;12.80;1.00;;;;;;5092594;28;20422;-64
2024/01/24 08:58:53;;;;;;;0.35;0.10;;;12.80;1.00;;;;;;5087434;28;20438;-64
2024/01/24 09:01:21;;;;;;;0.50;0.10;;;12.80;1.00;;;;;;5090105;28;20517;-63
2024/01/24 09:03:49;;;;;;;0.55;0.10;;;12.80;1.00;;;;;;5073872;28;20751;-64
2024/01/24 09:06:16;;;;;;;0.60;0.10;;;12.90;1.00;;;;;;5084123;28;20429;-64
2024/01/24 09:08:44;;;;;;;0.30;0.10;;;13.00;1.00;;;;;;5084299;28;20534;-63
2024/01/24 09:11:11;;;;;;;0.40;0.10;;;13.00;1.00;;;;;;5084728;28;20919;-63
2024/01/24 09:13:38;;;;;;;1.00;0.10;;;13.00;1.00;;;;;;5077893;28;20427;-62
2024/01/24 09:16:05;;;;;;;0.30;0.10;;;13.00;1.00;;;;;;5081848;28;20438;-64
2024/01/24 09:18:34;;;;;;;0.60;0.10;;;13.00;1.00;;;;;;5081482;28;20779;-64
2024/01/24 09:21:01;;;;;;;0.30;0.10;;;13.00;1.00;;;;;;5092449;28;20487;-65
2024/01/24 09:23:27;;;;;;;0.30;0.10;;;13.00;1.00;;;;;;5090863;28;20425;-64
2024/01/24 09:25:54;;;;;;;0.30;0.10;;;13.00;1.00;;;;;;5089030;28;20449;-63
2024/01/24 09:28:21;;;;;;;0.30;0.10;;;13.00;1.00;;;;;;5091655;28;20441;-64
2024/01/24 09:30:48;;;;;;;0.30;0.10;;;13.00;1.00;;;;;;5088648;28;20434;-64
2024/01/24 09:33:16;;;;;;;0.30;0.10;;;13.00;1.00;;;;;;5079218;28;20919;-63
2024/01/24 09:35:46;;;;;;;0.30;0.10;;;13.00;1.00;;;;;;5095367;28;20428;-64
2024/01/24 09:38:13;;;;;;;0.38;0.10;;;12.90;1.00;;;;;;5093802;28;20446;-63
2024/01/24 09:40:41;;;;;;;0.30;0.10;;;12.90;1.00;;;;;;5082089;28;20490;-63
2024/01/24 09:43:10;;;;;;;0.30;0.10;;;12.80;1.00;;;;;;5094739;28;20475;-63
2024/01/24 09:45:39;;;;;;;0.30;0.10;;;12.80;1.00;;;;;;5092527;28;20540;-66
2024/01/24 09:48:10;;;;;;;0.30;0.10;;;12.80;8.80;;;;;;5086839;28;20524;-62
2024/01/24 09:50:37;;;;;;;0.35;0.10;;;12.70;3.80;;;;;;5078903;28;20445;-63
2024/01/24 09:53:09;;;;;;;0.30;0.10;;;12.70;17.60;;;;;;5094694;28;20458;-62
2024/01/24 09:55:37;;;;;;;0.40;0.15;;;12.70;14.30;;;;;;5096683;28;20425;-63
2024/01/24 09:58:04;;;;;;;0.50;0.20;;;12.70;5.00;;;;;;5094847;28;20432;-61
2024/01/24 10:00:31;;;;;;;0.40;0.17;;;12.80;7.30;;;;;;5094885;28;20531;-64
2024/01/24 10:02:59;;;;;;;0.30;0.10;;;12.80;1.00;;;;;;5094494;28;20707;-63
2024/01/24 10:05:27;;;;;;;0.40;0.10;;;12.80;1.00;;;;;;5090873;28;20442;-62
2024/01/24 10:07:55;;;;;;;0.40;0.10;;;12.90;1.00;;;;;;5080493;28;20427;-61
2024/01/24 10:10:25;;;;;;;0.30;0.10;;;12.90;1.00;;;;;;5087007;28;20547;-61
2024/01/24 10:12:52;;;;;;;0.40;0.10;;;12.90;1.00;;;;;;5086793;28;20447;-62
2024/01/24 10:15:21;;;;;;;1.10;0.20;;;13.00;1.00;;;;;;5091276;28;20846;-60
2024/01/24 10:17:48;;;;;;;0.30;0.10;;;13.10;1.00;;;;;;5094336;28;20429;-62
2024/01/24 10:20:16;;;;;;;0.40;0.10;;;13.10;1.00;;;;;;5081109;28;20438;-63
2024/01/24 10:22:44;;;;;;;0.40;0.10;;;13.10;1.00;;;;;;5091532;28;20440;-63
2024/01/24 10:25:12;;;;;;;0.60;0.30;;;13.10;1.00;;;;;;5092418;28;20519;-63
2024/01/24 10:27:41;;;;;;;0.30;0.10;;;13.20;1.00;;;;;;5093549;28;20839;-59
2024/01/24 10:30:13;;;;;;;0.40;0.20;;;13.20;1.00;;;;;;5092177;28;20438;-61
2024/01/24 10:32:42;;;;;;;0.40;0.20;;;13.20;1.00;;;;;;5090232;28;20444;-58
2024/01/24 10:35:10;;;;;;;0.60;0.30;;;13.20;1.00;;;;;;5090021;28;20433;-60
2024/01/24 10:37:37;;;;;;;0.30;0.10;;;13.30;1.00;;;;;;5080472;28;20443;-59
2024/01/24 10:40:06;;;;;;;0.30;0.10;;;13.40;1.00;;;;;;5079513;28;20437;-57
2024/01/24 10:42:37;;;;;;;0.40;0.10;;;13.40;1.00;;;;;;5089983;28;20564;-60
2024/01/24 10:45:06;;;;;;;0.30;0.10;;;13.50;1.00;;;;;;5093992;28;20521;-59
2024/01/24 10:47:34;;;;;;;0.47;0.20;;;13.70;1.00;;;;;;5092254;28;20754;-58
2024/01/24 10:50:04;;;;;;;0.40;0.10;;;13.70;1.00;;;;;;5094419;28;20453;-59
2024/01/24 10:52:33;;;;;;;0.60;0.10;;;13.70;1.00;;;;;;5093468;28;20448;-58
2024/01/24 10:55:03;;;;;;;1.40;0.20;;;13.90;1.00;;;;;;5095456;28;20448;-59
2024/01/24 10:57:31;;;;;;;0.50;0.20;;;13.90;1.00;;;;;;5087752;28;20712;-59
2024/01/24 10:59:59;;;;;;;0.80;0.30;;;13.90;1.00;;;;;;5093650;28;20804;-61
2024/01/24 11:02:27;;;;;;;0.60;0.20;;;14.00;1.00;;;;;;5092363;28;20421;-62
2024/01/24 11:04:55;;;;;;;0.32;0.10;;;13.90;99.90;;;;;;5094226;28;20831;-61
2024/01/24 11:07:28;;;;;;;0.30;0.10;;;13.80;1.00;;;;;;5075841;28;20454;-63
2024/01/24 11:10:14;;;;;;;0.50;0.20;;;13.70;1.00;;;;;;5074430;28;20438;-61
2024/01/24 11:12:41;;;;;;;0.35;0.10;;;13.50;1.00;;;;;;5079367;28;20502;-63
2024/01/24 11:15:13;;;;;;;0.30;0.10;;;13.40;1.00;;;;;;5078493;28;20835;-61
2024/01/24 11:17:45;;;;;;;0.90;0.20;;;13.30;6.00;;;;;;5092790;28;20839;-61
2024/01/24 11:20:13;;;;;;;0.30;0.10;;;13.20;39.90;;;;;;5094463;28;20437;-61
2024/01/24 11:22:41;;;;;;;0.40;0.20;;;13.10;75.60;;;;;;5092846;28;20441;-63
2024/01/24 11:25:12;;;;;;;0.40;0.10;;;13.00;99.90;;;;;;5092490;28;20469;-62
2024/01/24 11:27:41;;;;;;;0.70;0.30;;;12.90;99.90;;;;;;5091003;28;20528;-63
2024/01/24 11:30:37;;;;;;;0.40;0.20;;;13.00;99.90;;;;;;5087933;28;20445;-61
2024/01/24 11:33:05;;;;;;;0.40;0.20;;;13.00;99.90;;;;;;5082024;28;20521;-62
2024/01/24 11:35:35;;;;;;;0.40;0.20;;;12.90;99.90;;;;;;5078586;28;20715;-62
2024/01/24 11:38:02;;;;;;;0.30;0.10;;;12.90;99.90;;;;;;5093021;28;20437;-62
2024/01/24 11:40:35;;;;;;;0.30;0.10;;;12.80;99.90;;;;;;5087252;28;20497;-63
2024/01/24 11:43:03;;;;;;;1.30;0.40;;;12.80;99.90;;;;;;5083895;28;20473;-62
2024/01/24 11:45:31;;;;;;;1.10;0.30;;;12.90;99.90;;;;;;5091839;28;20793;-62
2024/01/24 11:47:58;;;;;;;0.40;0.10;;;13.00;99.90;;;;;;5091694;28;20430;-62
2024/01/24 11:50:27;;;;;;;0.60;0.20;;;12.90;99.90;;;;;;5074654;28;20921;-64
2024/01/24 11:52:59;;;;;;;0.60;0.20;;;12.90;99.90;;;;;;5080219;28;20713;-61
2024/01/24 11:55:28;;;;;;;0.50;0.20;;;12.90;99.90;;;;;;5087077;28;20437;-62
2024/01/24 11:57:55;;;;;;;0.55;0.30;;;12.80;99.90;;;;;;5073064;28;20441;-62
2024/01/24 12:00:25;;;;;;;0.55;0.20;;;12.70;99.90;;;;;;5084017;28;20537;-62
2024/01/24 12:02:53;;;;;;;0.30;0.10;;;12.70;99.90;;;;;;5081770;28;20408;-62
2024/01/24 12:05:20;;;;;;;0.40;0.20;;;12.70;99.90;;;;;;5081797;28;20431;-62
2024/01/24 12:07:48;;;;;;;0.77;0.13;;;12.80;99.90;;;;;;5078638;28;20467;-62
2024/01/24 12:10:15;;;;;;;0.40;0.10;;;12.90;79.60;;;;;;5075917;28;20942;-62
2024/01/24 12:12:43;;;;;;;0.40;0.10;;;13.00;3.70;;;;;;5075806;28;20446;-62
2024/01/24 12:15:11;;;;;;;0.80;0.20;;;13.00;1.00;;;;;;5070752;28;20445;-63
2024/01/24 12:17:39;;;;;;;0.40;0.10;;;13.10;1.00;;;;;;5085918;28;20461;-64
2024/01/24 12:20:08;;;;;;;0.40;0.10;;;13.10;1.00;;;;;;5077964;28;20431;-65
2024/01/24 12:22:35;;;;;;;0.50;0.20;;;13.10;99.90;;;;;;5090190;28;20849;-65
2024/01/24 12:25:07;;;;;;;0.50;0.20;;;13.10;1.00;;;;;;5082182;28;20796;-66
2024/01/24 12:27:34;;;;;;;0.50;0.20;;;13.00;1.00;;;;;;5076545;28;20439;-65
2024/01/24 12:30:01;;;;;;;0.52;0.20;;;13.00;1.00;;;;;;5089536;28;20472;-65
2024/01/24 12:32:29;;;;;;;0.57;0.20;;;13.00;1.00;;;;;;5085057;28;20491;-63
2024/01/24 12:34:56;;;;;;;0.60;0.20;;;13.10;1.00;;;;;;5077608;28;20441;-64
2024/01/24 12:37:23;;;;;;;1.70;0.20;;;13.10;1.00;;;;;;5082260;28;20451;-61
2024/01/24 12:39:54;;;;;;;0.30;0.10;;;13.00;99.90;;;;;;5077710;28;20476;-63
2024/01/24 12:42:22;;;;;;;0.70;0.20;;;13.00;99.90;;;;;;5092626;28;20422;-63
2024/01/24 12:44:53;;;;;;;0.30;0.10;;;13.00;99.90;;;;;;5089805;28;20462;-63
2024/01/24 12:47:20;;;;;;;0.32;0.20;;;13.00;1.00;;;;;;5090027;28;20540;-63
2024/01/24 12:49:47;;;;;;;0.80;0.10;;;13.10;99.90;;;;;;5079351;28;20439;-60
2024/01/24 12:52:15;;;;;;;0.50;0.10;;;13.30;1.00;;;;;;5088055;28;20821;-60
2024/01/24 12:54:42;;;;;;;0.50;0.20;;;13.50;1.00;;;;;;5091080;28;20418;-60
2024/01/24 12:57:09;;;;;;;0.40;0.10;;;13.70;1.00;;;;;;5085097;28;20445;-59
2024/01/24 12:59:37;;;;;;;0.40;0.20;;;13.70;1.00;;;;;;5083512;28;20430;-61